»·PEaware :: N2600U KAUN-KBOK

N2600U :: KAUN-KBOK

FLIGHT INFORMATION

Flight Status: Arrived
Operator: Privately registered:
United States
More flights under this callsign
Pilot: Matthew F. (17981)
Aircraft: PILATUS PC-12 EAGLE
(PC12)
More flights by this aircraft type
Origin: KAUN Auburn Mun
United States
Destination: KBOK Brookings State
United States
More flights between these airports :: More routes between these airports
Route: RANGO DURHA V332 RBL V23 FJS DCT
File this flight plan on PilotEdge
Remarks:
Altitude:
(Current/Filed)
24,000ft
Speed:
(Current/Filed)
150kts
Departed: 05-Jan-19 06:51 PM
Arrived: 05-Jan-19 08:07 PM
Distance/Time
Traveled:
238nm/1:16
Distance/Time
To Go:
Arrived

Flight Plot

Page will automatically refresh every two minutes.

Flight plan parsing failed; only flown route is shown


Map Options




Map Legend


Flown Route
Filed Route
Departure Airport
Arrival Airport
Navaid (VOR, NDB)
Fix

Horizontal Profiles

Position Reports

Time Latitude Longitude Heading Altitude Ground
Speed
05-Jan-19 18:20 38.953186 -121.082867 355 1514ft 0kts
05-Jan-19 18:21 38.953186 -121.082867 355 1514ft 0kts
05-Jan-19 18:22 38.953186 -121.082867 355 1514ft 0kts
05-Jan-19 18:23 38.953186 -121.082867 355 1514ft 0kts
05-Jan-19 18:24 38.953186 -121.082867 355 1514ft 0kts
05-Jan-19 18:25 38.953186 -121.082867 355 1514ft 0kts
05-Jan-19 18:26 38.953186 -121.082867 355 1514ft 0kts
05-Jan-19 18:27 38.953186 -121.082867 355 1514ft 0kts
05-Jan-19 18:28 38.953186 -121.082867 355 1514ft 0kts
05-Jan-19 18:29 38.953186 -121.082867 355 1514ft 0kts
05-Jan-19 18:30 38.953186 -121.082867 355 1514ft 0kts
05-Jan-19 18:31 38.953186 -121.082867 355 1514ft 0kts
05-Jan-19 18:32 38.953186 -121.082867 355 1514ft 0kts
05-Jan-19 18:33 38.953186 -121.082867 355 1514ft 0kts
05-Jan-19 18:34 38.953186 -121.082867 355 1514ft 0kts
05-Jan-19 18:34 38.953186 -121.082867 355 1514ft 0kts
05-Jan-19 18:36 38.953186 -121.082867 355 1514ft 0kts
05-Jan-19 18:36 38.953186 -121.082867 355 1514ft 0kts
05-Jan-19 18:37 38.953186 -121.082867 355 1514ft 0kts
05-Jan-19 18:39 38.953355 -121.082433 85 1514ft 2kts
05-Jan-19 18:39 38.953602 -121.082275 352 1514ft 0kts
05-Jan-19 18:40 38.953602 -121.082275 352 1514ft 0kts
05-Jan-19 18:42 38.953602 -121.082275 352 1514ft 0kts
05-Jan-19 18:42 38.953602 -121.082274 352 1514ft 0kts
05-Jan-19 18:43 38.953602 -121.082275 352 1514ft 0kts
05-Jan-19 18:44 38.953602 -121.082274 351 1514ft 0kts
05-Jan-19 18:45 38.953602 -121.082274 352 1514ft 0kts
05-Jan-19 18:46 38.953602 -121.082275 352 1514ft 0kts
05-Jan-19 18:47 38.953602 -121.082274 352 1514ft 0kts
05-Jan-19 18:48 38.954000 -121.082328 353 1514ft 9kts
05-Jan-19 18:49 38.954032 -121.086022 265 1514ft 15kts
05-Jan-19 18:50 38.954449 -121.084230 98 1514ft 49kts
05-Jan-19 18:51 38.963766 -121.054935 18 2570ft 146kts
05-Jan-19 18:52 39.003232 -121.081320 340 3970ft 196kts
05-Jan-19 18:53 39.051722 -121.090935 355 6190ft 176kts
05-Jan-19 18:54 39.090067 -121.094534 352 7978ft 180kts
05-Jan-19 18:55 39.132653 -121.098119 347 9688ft 186kts
05-Jan-19 18:56 39.178794 -121.102111 346 11403ft 193kts
05-Jan-19 18:57 39.228529 -121.106413 345 13136ft 200kts
05-Jan-19 18:58 39.269778 -121.129276 289 14793ft 164kts
05-Jan-19 18:59 39.295663 -121.171667 287 16424ft 167kts
05-Jan-19 19:00 39.322895 -121.215108 287 17990ft 172kts
05-Jan-19 19:01 39.350929 -121.259458 287 19501ft 176kts
05-Jan-19 19:02 39.379635 -121.304953 286 20946ft 179kts
05-Jan-19 19:03 39.408668 -121.351026 286 22321ft 183kts
05-Jan-19 19:04 39.437623 -121.397803 290 23702ft 181kts
05-Jan-19 19:05 39.470529 -121.451768 295 23806ft 233kts
05-Jan-19 19:06 39.510502 -121.514765 296 23798ft 256kts
05-Jan-19 19:07 39.552476 -121.581127 297 23795ft 263kts
05-Jan-19 19:08 39.595146 -121.649096 297 23794ft 263kts
05-Jan-19 19:09 39.634747 -121.712608 296 23796ft 263kts
05-Jan-19 19:10 39.681387 -121.778194 307 23781ft 282kts
05-Jan-19 19:11 39.735924 -121.837991 308 23762ft 285kts
05-Jan-19 19:12 39.791733 -121.899039 308 23749ft 285kts
05-Jan-19 19:13 39.847357 -121.960082 308 23746ft 284kts
05-Jan-19 19:14 39.901165 -122.019262 307 23741ft 281kts
05-Jan-19 19:15 39.955601 -122.079125 307 23725ft 280kts
05-Jan-19 19:16 40.010268 -122.139835 307 23700ft 280kts
05-Jan-19 19:17 40.064789 -122.200332 307 23693ft 280kts
05-Jan-19 19:18 40.126393 -122.248088 333 23683ft 301kts
05-Jan-19 19:19 40.195496 -122.277456 332 23681ft 299kts
05-Jan-19 19:20 40.268115 -122.307891 332 23677ft 299kts
05-Jan-19 19:21 40.341209 -122.338312 332 23671ft 300kts
05-Jan-19 19:22 40.413089 -122.368264 332 23667ft 300kts
05-Jan-19 19:23 40.485210 -122.398385 332 23667ft 300kts
05-Jan-19 19:24 40.558316 -122.428988 332 23667ft 300kts
05-Jan-19 19:25 40.631079 -122.459510 332 23668ft 300kts
05-Jan-19 19:26 40.704385 -122.490337 332 23669ft 300kts
05-Jan-19 19:27 40.777616 -122.521236 332 23670ft 301kts
05-Jan-19 19:28 40.851262 -122.552361 332 23670ft 302kts
05-Jan-19 19:29 40.924953 -122.583572 332 23671ft 302kts
05-Jan-19 19:30 40.998784 -122.614922 332 23656ft 303kts
05-Jan-19 19:31 41.072555 -122.646319 332 23609ft 304kts
05-Jan-19 19:32 41.142552 -122.676186 331 23461ft 307kts
05-Jan-19 19:33 41.217746 -122.708253 332 23080ft 307kts
05-Jan-19 19:34 41.284751 -122.735534 330 22591ft 255kts
05-Jan-19 19:35 41.344192 -122.761402 327 22135ft 244kts
05-Jan-19 19:36 41.404136 -122.787591 329 21517ft 240kts
05-Jan-19 19:37 41.453985 -122.819668 294 20821ft 205kts
05-Jan-19 19:38 41.480233 -122.877077 283 20097ft 196kts
05-Jan-19 19:39 41.504606 -122.935408 285 19372ft 197kts
05-Jan-19 19:40 41.529525 -122.993704 287 18642ft 196kts
05-Jan-19 19:41 41.554248 -123.051393 288 17911ft 195kts
05-Jan-19 19:42 41.578444 -123.107981 290 17186ft 193kts
05-Jan-19 19:43 41.602746 -123.164953 290 16451ft 192kts
05-Jan-19 19:44 41.627067 -123.222077 290 15709ft 191kts
05-Jan-19 19:45 41.651637 -123.280002 291 14787ft 197kts
05-Jan-19 19:46 41.676339 -123.338198 291 13869ft 198kts
05-Jan-19 19:47 41.701406 -123.397379 291 12936ft 198kts
05-Jan-19 19:48 41.726052 -123.455727 291 12017ft 198kts
05-Jan-19 19:49 41.750044 -123.512527 290 11372ft 195kts
05-Jan-19 19:50 41.775868 -123.574565 293 10443ft 206kts
05-Jan-19 19:51 41.800532 -123.632386 292 9994ft 180kts
05-Jan-19 19:52 41.821866 -123.683320 290 10002ft 164kts
05-Jan-19 19:53 41.842209 -123.731616 290 10002ft 158kts
05-Jan-19 19:54 41.861864 -123.778614 290 10002ft 156kts
05-Jan-19 19:55 41.882566 -123.828176 291 9233ft 172kts
05-Jan-19 19:56 41.904072 -123.879128 292 8124ft 165kts
05-Jan-19 19:57 41.924428 -123.928344 291 7033ft 164kts
05-Jan-19 19:58 41.943304 -123.973892 290 6993ft 139kts
05-Jan-19 19:59 41.952937 -124.019292 273 6721ft 153kts
05-Jan-19 20:00 41.958690 -124.074956 273 5994ft 170kts
05-Jan-19 20:01 41.964744 -124.133240 273 5273ft 173kts
05-Jan-19 20:02 41.975850 -124.188651 300 4483ft 158kts
05-Jan-19 20:03 42.005310 -124.221641 317 3641ft 145kts
05-Jan-19 20:04 42.032638 -124.248877 323 2523ft 131kts
05-Jan-19 20:05 42.058795 -124.274994 319 840ft 108kts
05-Jan-19 20:06 42.074534 -124.290511 342 462ft 10kts
05-Jan-19 20:07 42.075409 -124.289734 7 462ft 2kts
05-Jan-19 20:08 42.075584 -124.289810 239 462ft 0kts

Navigation Log

Ident Type
Flight plan parsing failed, navigation log unavailable